TW-0029 weather

Taoyuan Armed Forces General Hospital Helipad
Taoyuan, Taoyuan County, Taiwan

Public forecast

Using degrees Celsius for public forecast. Weather courtesy of forecast.io.

Closest aviation weather report (METAR) to Taoyuan Armed Forces General Hospital Helipad

Closest report is Taiwan Taoyuan International Airport, 12.1 nm (22.4 km) N. Retrieved 2020/02/23 04:00 UTC (36 minutes ago):

RCTP 230400Z 09021KT 9999 FEW020 BKN030 23/15 Q1025 NOSIG RMK A3029

Closest aviation forecast (TAF) to Taoyuan Armed Forces General Hospital Helipad

Closest forecast is Taiwan Taoyuan International Airport, 12.1 nm (22.4 km) N. Retrieved 2020-02-23 00:00 UTC (5 hours ago):

TAF RCTP 222300Z 2300/2406 08017KT 9999 FEW016 BKN035 TEMPO 2302/2308 08022KT TEMPO 2314/2319 11017KT TEMPO 2319/2401 13005KT BECMG 2401/2403 33007KT